sensor_id;sensor_type;location;lat;lon;timestamp;P1;durP1;ratioP1;P2;durP2;ratioP2
75148;SDS011;63724;47.470;19.166;2022-11-20T00:02:29;13.95;;;7.10;;
75148;SDS011;63724;47.470;19.166;2022-11-20T00:05:32;16.23;;;7.77;;
75148;SDS011;63724;47.470;19.166;2022-11-20T00:08:35;18.37;;;8.40;;
75148;SDS011;63724;47.470;19.166;2022-11-20T00:11:38;18.27;;;8.18;;
75148;SDS011;63724;47.470;19.166;2022-11-20T00:14:42;18.98;;;7.78;;
75148;SDS011;63724;47.470;19.166;2022-11-20T00:17:44;18.70;;;8.02;;
75148;SDS011;63724;47.470;19.166;2022-11-20T00:20:47;18.47;;;8.33;;
75148;SDS011;63724;47.470;19.166;2022-11-20T00:23:50;16.67;;;8.63;;
75148;SDS011;63724;47.470;19.166;2022-11-20T00:26:55;16.73;;;8.52;;
75148;SDS011;63724;47.470;19.166;2022-11-20T00:29:58;16.15;;;7.45;;
75148;SDS011;63724;47.470;19.166;2022-11-20T00:33:00;19.20;;;8.20;;
75148;SDS011;63724;47.470;19.166;2022-11-20T00:36:07;17.20;;;8.43;;
75148;SDS011;63724;47.470;19.166;2022-11-20T00:39:14;15.60;;;7.53;;
75148;SDS011;63724;47.470;19.166;2022-11-20T00:42:16;16.92;;;7.95;;
75148;SDS011;63724;47.470;19.166;2022-11-20T00:45:19;18.20;;;9.32;;
75148;SDS011;63724;47.470;19.166;2022-11-20T00:48:21;20.85;;;9.02;;
75148;SDS011;63724;47.470;19.166;2022-11-20T00:51:25;21.23;;;9.57;;
75148;SDS011;63724;47.470;19.166;2022-11-20T00:54:28;22.93;;;9.90;;
75148;SDS011;63724;47.470;19.166;2022-11-20T00:57:31;21.13;;;9.93;;
75148;SDS011;63724;47.470;19.166;2022-11-20T01:00:33;22.55;;;10.02;;
75148;SDS011;63724;47.470;19.166;2022-11-20T01:03:37;20.33;;;9.35;;
75148;SDS011;63724;47.470;19.166;2022-11-20T01:06:41;18.93;;;9.10;;
75148;SDS011;63724;47.470;19.166;2022-11-20T01:09:43;23.30;;;9.43;;
75148;SDS011;63724;47.470;19.166;2022-11-20T01:12:45;21.67;;;9.93;;
75148;SDS011;63724;47.470;19.166;2022-11-20T01:16:18;22.52;;;10.23;;
75148;SDS011;63724;47.470;19.166;2022-11-20T01:19:22;19.98;;;9.40;;
75148;SDS011;63724;47.470;19.166;2022-11-20T01:22:26;21.57;;;10.33;;
75148;SDS011;63724;47.470;19.166;2022-11-20T01:25:28;23.10;;;9.97;;
75148;SDS011;63724;47.470;19.166;2022-11-20T01:28:31;21.38;;;9.80;;
75148;SDS011;63724;47.470;19.166;2022-11-20T01:31:35;23.00;;;10.35;;
75148;SDS011;63724;47.470;19.166;2022-11-20T01:34:38;25.13;;;11.18;;
75148;SDS011;63724;47.470;19.166;2022-11-20T01:37:40;24.30;;;11.00;;
75148;SDS011;63724;47.470;19.166;2022-11-20T01:40:42;25.33;;;10.50;;
75148;SDS011;63724;47.470;19.166;2022-11-20T01:43:45;29.08;;;11.43;;
75148;SDS011;63724;47.470;19.166;2022-11-20T01:46:52;24.67;;;11.57;;
75148;SDS011;63724;47.470;19.166;2022-11-20T01:49:59;25.52;;;10.60;;
75148;SDS011;63724;47.470;19.166;2022-11-20T01:53:11;27.23;;;11.23;;
75148;SDS011;63724;47.470;19.166;2022-11-20T01:56:17;24.40;;;10.20;;
75148;SDS011;63724;47.470;19.166;2022-11-20T01:59:19;29.67;;;11.70;;
75148;SDS011;63724;47.470;19.166;2022-11-20T02:02:23;27.65;;;11.82;;
75148;SDS011;63724;47.470;19.166;2022-11-20T02:05:32;29.45;;;12.10;;
75148;SDS011;63724;47.470;19.166;2022-11-20T02:08:57;29.00;;;11.87;;
75148;SDS011;63724;47.470;19.166;2022-11-20T02:12:00;25.67;;;10.63;;
75148;SDS011;63724;47.470;19.166;2022-11-20T02:15:03;30.65;;;12.20;;
75148;SDS011;63724;47.470;19.166;2022-11-20T02:18:06;28.00;;;11.70;;
75148;SDS011;63724;47.470;19.166;2022-11-20T02:24:49;33.40;;;13.93;;
75148;SDS011;63724;47.470;19.166;2022-11-20T02:27:53;30.80;;;11.67;;
75148;SDS011;63724;47.470;19.166;2022-11-20T02:30:55;30.27;;;12.65;;
75148;SDS011;63724;47.470;19.166;2022-11-20T02:33:57;31.10;;;12.35;;
75148;SDS011;63724;47.470;19.166;2022-11-20T02:37:00;31.85;;;14.20;;
75148;SDS011;63724;47.470;19.166;2022-11-20T02:40:02;34.80;;;13.63;;
75148;SDS011;63724;47.470;19.166;2022-11-20T02:43:05;30.53;;;12.77;;
75148;SDS011;63724;47.470;19.166;2022-11-20T02:46:07;31.02;;;13.15;;
75148;SDS011;63724;47.470;19.166;2022-11-20T02:49:10;29.13;;;12.07;;
75148;SDS011;63724;47.470;19.166;2022-11-20T02:52:12;28.67;;;12.38;;
75148;SDS011;63724;47.470;19.166;2022-11-20T02:55:14;31.53;;;13.80;;
75148;SDS011;63724;47.470;19.166;2022-11-20T02:58:17;34.40;;;13.30;;
75148;SDS011;63724;47.470;19.166;2022-11-20T03:01:19;30.38;;;13.00;;
75148;SDS011;63724;47.470;19.166;2022-11-20T03:04:21;30.58;;;12.30;;
75148;SDS011;63724;47.470;19.166;2022-11-20T03:07:24;29.80;;;13.18;;
75148;SDS011;63724;47.470;19.166;2022-11-20T03:10:27;31.90;;;12.40;;
75148;SDS011;63724;47.470;19.166;2022-11-20T03:13:29;29.73;;;12.63;;
75148;SDS011;63724;47.470;19.166;2022-11-20T03:16:32;31.55;;;13.00;;
75148;SDS011;63724;47.470;19.166;2022-11-20T03:19:34;30.00;;;13.23;;
75148;SDS011;63724;47.470;19.166;2022-11-20T03:22:39;27.50;;;12.13;;
75148;SDS011;63724;47.470;19.166;2022-11-20T03:25:42;27.97;;;12.13;;
75148;SDS011;63724;47.470;19.166;2022-11-20T03:28:54;28.73;;;11.93;;
75148;SDS011;63724;47.470;19.166;2022-11-20T03:32:01;28.85;;;12.52;;
75148;SDS011;63724;47.470;19.166;2022-11-20T03:35:03;29.42;;;12.27;;
75148;SDS011;63724;47.470;19.166;2022-11-20T03:38:05;33.28;;;13.73;;
75148;SDS011;63724;47.470;19.166;2022-11-20T03:41:09;26.90;;;12.07;;
75148;SDS011;63724;47.470;19.166;2022-11-20T03:44:16;28.97;;;11.60;;
75148;SDS011;63724;47.470;19.166;2022-11-20T03:47:18;28.85;;;12.48;;
75148;SDS011;63724;47.470;19.166;2022-11-20T03:50:20;28.50;;;12.00;;
75148;SDS011;63724;47.470;19.166;2022-11-20T03:53:23;26.45;;;11.68;;
75148;SDS011;63724;47.470;19.166;2022-11-20T03:56:26;30.93;;;13.17;;
75148;SDS011;63724;47.470;19.166;2022-11-20T03:59:29;28.27;;;12.23;;
75148;SDS011;63724;47.470;19.166;2022-11-20T04:02:32;31.23;;;13.50;;
75148;SDS011;63724;47.470;19.166;2022-11-20T04:05:34;28.13;;;12.85;;
75148;SDS011;63724;47.470;19.166;2022-11-20T04:08:36;27.30;;;12.20;;
75148;SDS011;63724;47.470;19.166;2022-11-20T04:11:39;29.33;;;12.63;;
75148;SDS011;63724;47.470;19.166;2022-11-20T04:14:42;29.20;;;12.63;;
75148;SDS011;63724;47.470;19.166;2022-11-20T04:17:44;28.60;;;12.55;;
75148;SDS011;63724;47.470;19.166;2022-11-20T04:20:47;31.20;;;12.68;;
75148;SDS011;63724;47.470;19.166;2022-11-20T04:23:49;25.70;;;11.35;;
75148;SDS011;63724;47.470;19.166;2022-11-20T04:26:52;28.27;;;13.20;;
75148;SDS011;63724;47.470;19.166;2022-11-20T04:29:55;29.30;;;11.70;;
75148;SDS011;63724;47.470;19.166;2022-11-20T04:32:57;28.42;;;12.20;;
75148;SDS011;63724;47.470;19.166;2022-11-20T04:36:06;31.17;;;12.25;;
75148;SDS011;63724;47.470;19.166;2022-11-20T04:39:12;22.40;;;11.40;;
75148;SDS011;63724;47.470;19.166;2022-11-20T04:42:16;28.90;;;12.10;;
75148;SDS011;63724;47.470;19.166;2022-11-20T04:45:30;25.67;;;11.33;;
75148;SDS011;63724;47.470;19.166;2022-11-20T04:48:32;25.25;;;10.77;;
75148;SDS011;63724;47.470;19.166;2022-11-20T04:51:36;23.65;;;10.98;;
75148;SDS011;63724;47.470;19.166;2022-11-20T04:54:38;29.50;;;12.52;;
75148;SDS011;63724;47.470;19.166;2022-11-20T04:57:41;26.43;;;11.70;;
75148;SDS011;63724;47.470;19.166;2022-11-20T05:00:43;26.27;;;11.87;;
75148;SDS011;63724;47.470;19.166;2022-11-20T05:03:45;28.33;;;12.30;;
75148;SDS011;63724;47.470;19.166;2022-11-20T05:06:49;29.13;;;12.32;;
75148;SDS011;63724;47.470;19.166;2022-11-20T05:09:51;28.02;;;11.57;;
75148;SDS011;63724;47.470;19.166;2022-11-20T05:12:54;26.83;;;12.83;;
75148;SDS011;63724;47.470;19.166;2022-11-20T05:16:00;28.43;;;12.57;;
75148;SDS011;63724;47.470;19.166;2022-11-20T05:19:04;28.92;;;12.27;;
75148;SDS011;63724;47.470;19.166;2022-11-20T05:22:06;27.23;;;12.50;;
75148;SDS011;63724;47.470;19.166;2022-11-20T05:25:08;27.10;;;13.05;;
75148;SDS011;63724;47.470;19.166;2022-11-20T05:28:11;27.17;;;11.80;;
75148;SDS011;63724;47.470;19.166;2022-11-20T05:31:17;27.17;;;11.93;;
75148;SDS011;63724;47.470;19.166;2022-11-20T05:34:28;27.05;;;12.00;;
75148;SDS011;63724;47.470;19.166;2022-11-20T05:37:30;27.33;;;12.57;;
75148;SDS011;63724;47.470;19.166;2022-11-20T05:40:33;28.27;;;12.57;;
75148;SDS011;63724;47.470;19.166;2022-11-20T05:43:35;30.87;;;13.37;;
75148;SDS011;63724;47.470;19.166;2022-11-20T05:46:39;29.77;;;12.07;;
75148;SDS011;63724;47.470;19.166;2022-11-20T05:49:42;28.00;;;12.50;;
75148;SDS011;63724;47.470;19.166;2022-11-20T05:52:44;30.25;;;12.77;;
75148;SDS011;63724;47.470;19.166;2022-11-20T05:55:46;30.35;;;13.88;;
75148;SDS011;63724;47.470;19.166;2022-11-20T05:58:58;27.97;;;13.03;;
75148;SDS011;63724;47.470;19.166;2022-11-20T06:02:00;33.63;;;14.33;;
75148;SDS011;63724;47.470;19.166;2022-11-20T06:05:02;29.98;;;13.13;;
75148;SDS011;63724;47.470;19.166;2022-11-20T06:08:05;28.88;;;13.10;;
75148;SDS011;63724;47.470;19.166;2022-11-20T06:11:08;27.45;;;12.68;;
75148;SDS011;63724;47.470;19.166;2022-11-20T06:14:11;26.53;;;13.00;;
75148;SDS011;63724;47.470;19.166;2022-11-20T06:17:14;29.73;;;11.93;;
75148;SDS011;63724;47.470;19.166;2022-11-20T06:20:16;32.90;;;12.65;;
75148;SDS011;63724;47.470;19.166;2022-11-20T06:23:18;27.20;;;12.98;;
75148;SDS011;63724;47.470;19.166;2022-11-20T06:26:21;30.77;;;13.00;;
75148;SDS011;63724;47.470;19.166;2022-11-20T06:29:25;26.93;;;11.97;;
75148;SDS011;63724;47.470;19.166;2022-11-20T06:32:34;30.33;;;12.00;;
75148;SDS011;63724;47.470;19.166;2022-11-20T06:35:36;29.17;;;12.02;;
75148;SDS011;63724;47.470;19.166;2022-11-20T06:38:39;28.88;;;12.50;;
75148;SDS011;63724;47.470;19.166;2022-11-20T06:41:41;30.98;;;13.75;;
75148;SDS011;63724;47.470;19.166;2022-11-20T06:44:44;29.77;;;13.50;;
75148;SDS011;63724;47.470;19.166;2022-11-20T06:47:46;24.73;;;11.87;;
75148;SDS011;63724;47.470;19.166;2022-11-20T06:50:48;30.77;;;13.02;;
75148;SDS011;63724;47.470;19.166;2022-11-20T06:53:50;28.40;;;12.68;;
75148;SDS011;63724;47.470;19.166;2022-11-20T06:56:53;28.27;;;13.10;;
75148;SDS011;63724;47.470;19.166;2022-11-20T06:59:55;26.33;;;12.87;;
75148;SDS011;63724;47.470;19.166;2022-11-20T07:02:57;26.37;;;12.50;;
75148;SDS011;63724;47.470;19.166;2022-11-20T07:06:00;27.70;;;12.95;;
75148;SDS011;63724;47.470;19.166;2022-11-20T07:09:03;26.73;;;12.75;;
75148;SDS011;63724;47.470;19.166;2022-11-20T07:12:12;27.67;;;13.02;;
75148;SDS011;63724;47.470;19.166;2022-11-20T07:15:14;33.43;;;13.77;;
75148;SDS011;63724;47.470;19.166;2022-11-20T07:18:16;33.13;;;14.03;;
75148;SDS011;63724;47.470;19.166;2022-11-20T07:21:19;31.52;;;13.38;;
75148;SDS011;63724;47.470;19.166;2022-11-20T07:24:21;28.67;;;13.63;;
75148;SDS011;63724;47.470;19.166;2022-11-20T07:27:23;28.95;;;12.80;;
75148;SDS011;63724;47.470;19.166;2022-11-20T07:30:26;30.40;;;13.90;;
75148;SDS011;63724;47.470;19.166;2022-11-20T07:33:29;29.57;;;12.47;;
75148;SDS011;63724;47.470;19.166;2022-11-20T07:36:31;27.60;;;12.77;;
75148;SDS011;63724;47.470;19.166;2022-11-20T07:39:34;30.05;;;13.25;;
75148;SDS011;63724;47.470;19.166;2022-11-20T07:42:36;30.38;;;13.68;;
75148;SDS011;63724;47.470;19.166;2022-11-20T07:45:38;28.53;;;13.73;;
75148;SDS011;63724;47.470;19.166;2022-11-20T07:48:41;29.60;;;14.37;;
75148;SDS011;63724;47.470;19.166;2022-11-20T07:51:43;28.90;;;13.30;;
75148;SDS011;63724;47.470;19.166;2022-11-20T07:54:47;31.45;;;14.73;;
75148;SDS011;63724;47.470;19.166;2022-11-20T07:57:53;36.00;;;15.27;;
75148;SDS011;63724;47.470;19.166;2022-11-20T08:00:57;29.17;;;13.63;;
75148;SDS011;63724;47.470;19.166;2022-11-20T08:03:59;33.00;;;15.07;;
75148;SDS011;63724;47.470;19.166;2022-11-20T08:07:01;30.85;;;13.80;;
75148;SDS011;63724;47.470;19.166;2022-11-20T08:10:04;38.22;;;15.88;;
75148;SDS011;63724;47.470;19.166;2022-11-20T08:13:08;35.97;;;14.93;;
75148;SDS011;63724;47.470;19.166;2022-11-20T08:16:29;29.63;;;13.70;;
75148;SDS011;63724;47.470;19.166;2022-11-20T08:19:31;34.97;;;14.50;;
75148;SDS011;63724;47.470;19.166;2022-11-20T08:22:34;31.35;;;13.35;;
75148;SDS011;63724;47.470;19.166;2022-11-20T08:25:37;36.30;;;14.27;;
75148;SDS011;63724;47.470;19.166;2022-11-20T08:28:40;27.77;;;13.43;;
75148;SDS011;63724;47.470;19.166;2022-11-20T08:31:42;34.53;;;14.40;;
75148;SDS011;63724;47.470;19.166;2022-11-20T08:34:44;36.57;;;13.97;;
75148;SDS011;63724;47.470;19.166;2022-11-20T08:37:48;30.48;;;13.15;;
75148;SDS011;63724;47.470;19.166;2022-11-20T08:40:50;34.58;;;13.45;;
75148;SDS011;63724;47.470;19.166;2022-11-20T08:44:12;30.15;;;13.27;;
75148;SDS011;63724;47.470;19.166;2022-11-20T08:47:14;27.73;;;12.80;;
75148;SDS011;63724;47.470;19.166;2022-11-20T08:50:16;25.33;;;12.53;;
75148;SDS011;63724;47.470;19.166;2022-11-20T08:53:19;26.92;;;12.77;;
75148;SDS011;63724;47.470;19.166;2022-11-20T08:56:22;29.73;;;13.00;;
75148;SDS011;63724;47.470;19.166;2022-11-20T08:59:24;28.45;;;12.73;;
75148;SDS011;63724;47.470;19.166;2022-11-20T09:02:47;34.43;;;14.63;;
75148;SDS011;63724;47.470;19.166;2022-11-20T09:05:49;30.27;;;13.83;;
75148;SDS011;63724;47.470;19.166;2022-11-20T09:08:53;32.53;;;14.35;;
75148;SDS011;63724;47.470;19.166;2022-11-20T09:11:55;29.13;;;13.63;;
75148;SDS011;63724;47.470;19.166;2022-11-20T09:14:57;30.30;;;13.63;;
75148;SDS011;63724;47.470;19.166;2022-11-20T09:18:01;26.87;;;13.20;;
75148;SDS011;63724;47.470;19.166;2022-11-20T09:21:05;28.33;;;12.87;;
75148;SDS011;63724;47.470;19.166;2022-11-20T09:24:09;25.85;;;12.77;;
75148;SDS011;63724;47.470;19.166;2022-11-20T09:27:11;31.52;;;13.10;;
75148;SDS011;63724;47.470;19.166;2022-11-20T09:30:14;29.40;;;12.32;;
75148;SDS011;63724;47.470;19.166;2022-11-20T09:33:17;26.93;;;13.30;;
75148;SDS011;63724;47.470;19.166;2022-11-20T09:36:20;23.57;;;11.80;;
75148;SDS011;63724;47.470;19.166;2022-11-20T09:39:22;27.58;;;13.13;;
75148;SDS011;63724;47.470;19.166;2022-11-20T09:42:32;25.17;;;11.88;;
75148;SDS011;63724;47.470;19.166;2022-11-20T09:52:24;25.37;;;12.90;;
75148;SDS011;63724;47.470;19.166;2022-11-20T09:55:35;28.48;;;12.93;;
75148;SDS011;63724;47.470;19.166;2022-11-20T10:01:44;24.85;;;11.45;;
75148;SDS011;63724;47.470;19.166;2022-11-20T10:04:49;26.17;;;12.73;;
75148;SDS011;63724;47.470;19.166;2022-11-20T10:11:14;23.00;;;11.57;;
75148;SDS011;63724;47.470;19.166;2022-11-20T10:17:41;24.85;;;12.82;;
75148;SDS011;63724;47.470;19.166;2022-11-20T10:24:23;29.60;;;14.30;;
75148;SDS011;63724;47.470;19.166;2022-11-20T10:31:04;28.35;;;13.23;;
75148;SDS011;63724;47.470;19.166;2022-11-20T10:34:26;24.98;;;12.73;;
75148;SDS011;63724;47.470;19.166;2022-11-20T10:37:33;22.73;;;11.47;;
75148;SDS011;63724;47.470;19.166;2022-11-20T10:40:42;27.07;;;12.50;;
75148;SDS011;63724;47.470;19.166;2022-11-20T10:43:46;30.77;;;13.98;;
75148;SDS011;63724;47.470;19.166;2022-11-20T10:46:49;28.10;;;12.95;;
75148;SDS011;63724;47.470;19.166;2022-11-20T10:49:52;26.50;;;13.70;;
75148;SDS011;63724;47.470;19.166;2022-11-20T10:56:13;26.07;;;13.53;;
75148;SDS011;63724;47.470;19.166;2022-11-20T10:59:51;27.35;;;12.32;;
75148;SDS011;63724;47.470;19.166;2022-11-20T11:02:51;30.35;;;13.90;;
75148;SDS011;63724;47.470;19.166;2022-11-20T11:05:57;26.40;;;12.27;;
75148;SDS011;63724;47.470;19.166;2022-11-20T11:09:09;29.17;;;13.47;;
75148;SDS011;63724;47.470;19.166;2022-11-20T11:12:14;26.73;;;13.43;;
75148;SDS011;63724;47.470;19.166;2022-11-20T11:15:30;24.52;;;12.95;;
75148;SDS011;63724;47.470;19.166;2022-11-20T11:18:39;27.63;;;12.00;;
75148;SDS011;63724;47.470;19.166;2022-11-20T11:22:00;24.65;;;12.40;;
75148;SDS011;63724;47.470;19.166;2022-11-20T11:25:19;26.53;;;12.43;;
75148;SDS011;63724;47.470;19.166;2022-11-20T11:28:24;27.70;;;14.30;;
75148;SDS011;63724;47.470;19.166;2022-11-20T11:31:29;27.77;;;13.32;;
75148;SDS011;63724;47.470;19.166;2022-11-20T11:34:35;30.92;;;13.75;;
75148;SDS011;63724;47.470;19.166;2022-11-20T11:37:37;26.08;;;13.80;;
75148;SDS011;63724;47.470;19.166;2022-11-20T11:40:40;27.70;;;13.10;;
75148;SDS011;63724;47.470;19.166;2022-11-20T11:43:49;26.87;;;13.57;;
75148;SDS011;63724;47.470;19.166;2022-11-20T11:50:49;26.70;;;12.25;;
75148;SDS011;63724;47.470;19.166;2022-11-20T11:53:52;22.42;;;12.13;;
75148;SDS011;63724;47.470;19.166;2022-11-20T11:56:54;24.37;;;12.20;;
75148;SDS011;63724;47.470;19.166;2022-11-20T12:00:31;22.73;;;11.40;;
75148;SDS011;63724;47.470;19.166;2022-11-20T12:03:34;21.15;;;10.55;;
75148;SDS011;63724;47.470;19.166;2022-11-20T12:06:39;22.30;;;10.98;;
75148;SDS011;63724;47.470;19.166;2022-11-20T12:09:43;19.40;;;10.30;;
75148;SDS011;63724;47.470;19.166;2022-11-20T12:12:54;20.60;;;9.87;;
75148;SDS011;63724;47.470;19.166;2022-11-20T12:16:03;23.50;;;11.53;;
75148;SDS011;63724;47.470;19.166;2022-11-20T12:19:12;24.65;;;12.20;;
75148;SDS011;63724;47.470;19.166;2022-11-20T12:25:34;24.27;;;11.57;;
75148;SDS011;63724;47.470;19.166;2022-11-20T12:28:47;26.63;;;11.87;;
75148;SDS011;63724;47.470;19.166;2022-11-20T12:38:50;31.05;;;13.95;;
75148;SDS011;63724;47.470;19.166;2022-11-20T12:42:03;25.02;;;13.43;;
75148;SDS011;63724;47.470;19.166;2022-11-20T12:52:37;27.75;;;13.35;;
75148;SDS011;63724;47.470;19.166;2022-11-20T12:55:47;30.17;;;15.00;;
75148;SDS011;63724;47.470;19.166;2022-11-20T13:05:43;26.53;;;12.80;;
75148;SDS011;63724;47.470;19.166;2022-11-20T13:09:00;28.30;;;13.20;;
75148;SDS011;63724;47.470;19.166;2022-11-20T13:12:08;27.00;;;12.95;;
75148;SDS011;63724;47.470;19.166;2022-11-20T13:15:17;28.20;;;14.13;;
75148;SDS011;63724;47.470;19.166;2022-11-20T13:18:23;30.50;;;13.50;;
75148;SDS011;63724;47.470;19.166;2022-11-20T13:21:42;30.13;;;13.60;;
75148;SDS011;63724;47.470;19.166;2022-11-20T13:24:50;25.98;;;13.80;;
75148;SDS011;63724;47.470;19.166;2022-11-20T13:27:53;24.90;;;12.48;;
75148;SDS011;63724;47.470;19.166;2022-11-20T13:30:57;25.30;;;12.73;;
75148;SDS011;63724;47.470;19.166;2022-11-20T13:34:02;26.73;;;12.87;;
75148;SDS011;63724;47.470;19.166;2022-11-20T13:37:05;29.73;;;14.07;;
75148;SDS011;63724;47.470;19.166;2022-11-20T13:40:27;25.63;;;12.88;;
75148;SDS011;63724;47.470;19.166;2022-11-20T13:43:40;24.75;;;12.05;;
75148;SDS011;63724;47.470;19.166;2022-11-20T13:46:44;27.05;;;13.07;;
75148;SDS011;63724;47.470;19.166;2022-11-20T13:49:47;29.13;;;13.80;;
75148;SDS011;63724;47.470;19.166;2022-11-20T13:52:59;28.50;;;13.50;;
75148;SDS011;63724;47.470;19.166;2022-11-20T14:06:12;30.33;;;12.63;;
75148;SDS011;63724;47.470;19.166;2022-11-20T14:09:31;30.13;;;13.23;;
75148;SDS011;63724;47.470;19.166;2022-11-20T14:12:35;27.35;;;13.13;;
75148;SDS011;63724;47.470;19.166;2022-11-20T14:15:38;24.77;;;13.00;;
75148;SDS011;63724;47.470;19.166;2022-11-20T14:18:46;27.73;;;13.15;;
75148;SDS011;63724;47.470;19.166;2022-11-20T14:21:48;27.40;;;13.93;;
75148;SDS011;63724;47.470;19.166;2022-11-20T14:28:19;32.90;;;14.48;;
75148;SDS011;63724;47.470;19.166;2022-11-20T14:31:31;29.30;;;12.57;;
75148;SDS011;63724;47.470;19.166;2022-11-20T14:34:35;28.35;;;13.60;;
75148;SDS011;63724;47.470;19.166;2022-11-20T14:37:40;28.57;;;13.20;;
75148;SDS011;63724;47.470;19.166;2022-11-20T14:40:42;26.90;;;11.90;;
75148;SDS011;63724;47.470;19.166;2022-11-20T14:43:55;30.50;;;14.25;;
75148;SDS011;63724;47.470;19.166;2022-11-20T14:46:59;31.67;;;13.68;;
75148;SDS011;63724;47.470;19.166;2022-11-20T14:50:03;31.23;;;14.90;;
75148;SDS011;63724;47.470;19.166;2022-11-20T14:53:10;27.93;;;13.27;;
75148;SDS011;63724;47.470;19.166;2022-11-20T14:56:24;25.53;;;12.43;;
75148;SDS011;63724;47.470;19.166;2022-11-20T14:59:28;26.20;;;12.57;;
75148;SDS011;63724;47.470;19.166;2022-11-20T15:02:32;27.80;;;13.35;;
75148;SDS011;63724;47.470;19.166;2022-11-20T15:05:45;28.05;;;13.48;;
75148;SDS011;63724;47.470;19.166;2022-11-20T15:08:53;30.70;;;14.13;;
75148;SDS011;63724;47.470;19.166;2022-11-20T15:11:56;28.70;;;13.57;;
75148;SDS011;63724;47.470;19.166;2022-11-20T15:15:00;28.55;;;13.00;;
75148;SDS011;63724;47.470;19.166;2022-11-20T15:18:03;25.98;;;12.88;;
75148;SDS011;63724;47.470;19.166;2022-11-20T15:21:10;30.95;;;13.88;;
75148;SDS011;63724;47.470;19.166;2022-11-20T15:24:13;26.27;;;12.93;;
75148;SDS011;63724;47.470;19.166;2022-11-20T15:27:16;30.10;;;14.43;;
75148;SDS011;63724;47.470;19.166;2022-11-20T15:30:19;28.23;;;13.27;;
75148;SDS011;63724;47.470;19.166;2022-11-20T15:33:22;30.40;;;13.27;;
75148;SDS011;63724;47.470;19.166;2022-11-20T15:36:25;25.25;;;12.35;;
75148;SDS011;63724;47.470;19.166;2022-11-20T15:39:27;29.03;;;13.73;;
75148;SDS011;63724;47.470;19.166;2022-11-20T15:42:29;31.03;;;14.53;;
75148;SDS011;63724;47.470;19.166;2022-11-20T15:49:02;30.17;;;13.60;;
75148;SDS011;63724;47.470;19.166;2022-11-20T15:52:04;28.42;;;13.32;;
75148;SDS011;63724;47.470;19.166;2022-11-20T15:55:09;27.60;;;12.50;;
75148;SDS011;63724;47.470;19.166;2022-11-20T15:58:11;26.87;;;13.33;;
75148;SDS011;63724;47.470;19.166;2022-11-20T16:01:15;29.27;;;13.88;;
75148;SDS011;63724;47.470;19.166;2022-11-20T16:04:18;26.85;;;13.05;;
75148;SDS011;63724;47.470;19.166;2022-11-20T16:07:21;55.72;;;24.45;;
75148;SDS011;63724;47.470;19.166;2022-11-20T16:10:24;43.33;;;17.63;;
75148;SDS011;63724;47.470;19.166;2022-11-20T16:13:26;41.73;;;18.43;;
75148;SDS011;63724;47.470;19.166;2022-11-20T16:16:47;46.47;;;19.10;;
75148;SDS011;63724;47.470;19.166;2022-11-20T16:19:49;41.30;;;16.98;;
75148;SDS011;63724;47.470;19.166;2022-11-20T16:22:51;46.75;;;20.27;;
75148;SDS011;63724;47.470;19.166;2022-11-20T16:25:54;37.30;;;17.03;;
75148;SDS011;63724;47.470;19.166;2022-11-20T16:28:58;43.00;;;18.67;;
75148;SDS011;63724;47.470;19.166;2022-11-20T16:32:00;40.35;;;19.30;;
75148;SDS011;63724;47.470;19.166;2022-11-20T16:35:03;40.60;;;18.38;;
75148;SDS011;63724;47.470;19.166;2022-11-20T16:38:05;42.88;;;20.08;;
75148;SDS011;63724;47.470;19.166;2022-11-20T16:41:08;38.83;;;19.00;;
75148;SDS011;63724;47.470;19.166;2022-11-20T16:44:17;42.13;;;19.53;;
75148;SDS011;63724;47.470;19.166;2022-11-20T16:47:19;40.78;;;20.88;;
75148;SDS011;63724;47.470;19.166;2022-11-20T16:50:21;41.28;;;20.33;;
75148;SDS011;63724;47.470;19.166;2022-11-20T16:53:24;40.78;;;20.65;;
75148;SDS011;63724;47.470;19.166;2022-11-20T16:56:26;44.27;;;19.73;;
75148;SDS011;63724;47.470;19.166;2022-11-20T16:59:28;47.30;;;22.00;;
75148;SDS011;63724;47.470;19.166;2022-11-20T17:02:31;46.22;;;22.90;;
75148;SDS011;63724;47.470;19.166;2022-11-20T17:05:33;42.20;;;20.48;;
75148;SDS011;63724;47.470;19.166;2022-11-20T17:08:36;38.05;;;18.55;;
75148;SDS011;63724;47.470;19.166;2022-11-20T17:11:38;42.80;;;20.17;;
75148;SDS011;63724;47.470;19.166;2022-11-20T17:14:41;46.57;;;20.60;;
75148;SDS011;63724;47.470;19.166;2022-11-20T17:17:43;39.40;;;18.88;;
75148;SDS011;63724;47.470;19.166;2022-11-20T17:20:50;38.03;;;18.25;;
75148;SDS011;63724;47.470;19.166;2022-11-20T17:23:53;40.30;;;18.60;;
75148;SDS011;63724;47.470;19.166;2022-11-20T17:26:55;40.50;;;19.50;;
75148;SDS011;63724;47.470;19.166;2022-11-20T17:29:57;38.43;;;17.73;;
75148;SDS011;63724;47.470;19.166;2022-11-20T17:33:00;40.28;;;18.10;;
75148;SDS011;63724;47.470;19.166;2022-11-20T17:36:03;41.03;;;19.23;;
75148;SDS011;63724;47.470;19.166;2022-11-20T17:39:06;43.63;;;18.45;;
75148;SDS011;63724;47.470;19.166;2022-11-20T17:42:09;39.00;;;18.27;;
75148;SDS011;63724;47.470;19.166;2022-11-20T17:45:30;37.00;;;17.13;;
75148;SDS011;63724;47.470;19.166;2022-11-20T17:48:33;40.47;;;17.55;;
75148;SDS011;63724;47.470;19.166;2022-11-20T17:51:36;40.95;;;19.63;;
75148;SDS011;63724;47.470;19.166;2022-11-20T17:54:38;36.28;;;17.02;;
75148;SDS011;63724;47.470;19.166;2022-11-20T17:57:40;37.97;;;18.53;;
75148;SDS011;63724;47.470;19.166;2022-11-20T18:01:03;41.73;;;17.43;;
75148;SDS011;63724;47.470;19.166;2022-11-20T18:04:06;37.88;;;16.88;;
75148;SDS011;63724;47.470;19.166;2022-11-20T18:07:09;52.90;;;20.58;;
75148;SDS011;63724;47.470;19.166;2022-11-20T18:10:11;78.93;;;31.63;;
75148;SDS011;63724;47.470;19.166;2022-11-20T18:13:13;174.57;;;59.93;;
75148;SDS011;63724;47.470;19.166;2022-11-20T18:16:16;119.13;;;45.20;;
75148;SDS011;63724;47.470;19.166;2022-11-20T18:19:19;189.30;;;60.30;;
75148;SDS011;63724;47.470;19.166;2022-11-20T18:22:24;140.45;;;44.15;;
75148;SDS011;63724;47.470;19.166;2022-11-20T18:25:26;100.07;;;36.08;;
75148;SDS011;63724;47.470;19.166;2022-11-20T18:28:29;78.90;;;28.67;;
75148;SDS011;63724;47.470;19.166;2022-11-20T18:31:31;63.27;;;25.17;;
75148;SDS011;63724;47.470;19.166;2022-11-20T18:34:33;61.05;;;24.40;;
75148;SDS011;63724;47.470;19.166;2022-11-20T18:37:35;46.13;;;22.25;;
75148;SDS011;63724;47.470;19.166;2022-11-20T18:40:38;43.58;;;19.70;;
75148;SDS011;63724;47.470;19.166;2022-11-20T18:43:40;42.17;;;18.73;;
75148;SDS011;63724;47.470;19.166;2022-11-20T18:47:01;50.60;;;22.07;;
75148;SDS011;63724;47.470;19.166;2022-11-20T18:50:14;52.25;;;22.77;;
75148;SDS011;63724;47.470;19.166;2022-11-20T18:53:17;50.40;;;22.67;;
75148;SDS011;63724;47.470;19.166;2022-11-20T18:56:19;46.75;;;21.77;;
75148;SDS011;63724;47.470;19.166;2022-11-20T18:59:21;44.50;;;20.07;;
75148;SDS011;63724;47.470;19.166;2022-11-20T19:02:24;44.83;;;20.57;;